createdAt,value
2023-03-26T00:02:23.279Z,64.15
2023-03-26T00:05:30.408Z,64.24
2023-03-26T00:08:36.803Z,64.37
2023-03-26T00:11:44.074Z,64.43
2023-03-26T00:14:51.107Z,64.53
2023-03-26T00:17:56.630Z,64.63
2023-03-26T00:21:02.615Z,64.67
2023-03-26T00:24:12.546Z,64.72
2023-03-26T00:27:17.648Z,64.78
2023-03-26T00:30:24.105Z,64.80
2023-03-26T00:33:30.748Z,64.91
2023-03-26T00:36:37.768Z,65.02
2023-03-26T00:39:46.749Z,65.12
2023-03-26T00:42:53.319Z,65.21
2023-03-26T00:46:03.847Z,65.33
2023-03-26T00:49:11.492Z,65.45
2023-03-26T00:52:18.082Z,65.48
2023-03-26T00:55:25.674Z,65.55
2023-03-26T00:58:32.611Z,65.64
2023-03-26T01:01:40.671Z,65.71
2023-03-26T01:04:51.678Z,65.84
2023-03-26T01:07:58.146Z,65.88
2023-03-26T01:11:05.284Z,65.89
2023-03-26T01:14:18.200Z,65.87
2023-03-26T01:17:23.940Z,65.94
2023-03-26T01:20:37.535Z,65.98
2023-03-26T01:23:46.781Z,66.07
2023-03-26T01:27:12.277Z,66.13
2023-03-26T01:30:45.611Z,66.19
2023-03-26T01:34:02.564Z,66.18
2023-03-26T01:37:42.518Z,66.26
2023-03-26T01:41:03.163Z,66.18
2023-03-26T01:44:43.289Z,66.27
2023-03-26T01:47:50.262Z,66.31
2023-03-26T01:50:58.965Z,66.37
2023-03-26T01:54:05.812Z,66.34
2023-03-26T01:57:18.983Z,66.36
2023-03-26T02:00:48.386Z,66.43
2023-03-26T02:04:05.185Z,66.50
2023-03-26T02:07:18.563Z,66.59
2023-03-26T02:10:42.538Z,66.58
2023-03-26T02:13:48.859Z,66.59
2023-03-26T02:16:55.352Z,66.42
2023-03-26T02:20:00.865Z,66.47
2023-03-26T02:23:07.952Z,66.54
2023-03-26T02:26:13.404Z,66.46
2023-03-26T02:29:30.488Z,66.65
2023-03-26T02:32:36.348Z,66.80
2023-03-26T02:35:43.613Z,66.82
2023-03-26T02:38:50.763Z,66.86
2023-03-26T02:41:56.926Z,67.02
2023-03-26T02:45:05.965Z,67.06
2023-03-26T02:48:29.592Z,67.13
2023-03-26T02:51:39.738Z,67.10
2023-03-26T02:54:53.910Z,66.99
2023-03-26T02:58:00.791Z,67.02
2023-03-26T03:01:12.429Z,67.19
2023-03-26T03:04:27.617Z,67.21
2023-03-26T03:07:34.192Z,67.12
2023-03-26T03:10:41.244Z,67.35
2023-03-26T03:13:48.686Z,67.55
2023-03-26T03:16:57.659Z,67.56
2023-03-26T03:20:03.171Z,67.52
2023-03-26T03:23:09.524Z,67.68
2023-03-26T03:26:09.210Z,67.84
2023-03-26T03:29:20.678Z,67.91
2023-03-26T03:32:29.921Z,67.94
2023-03-26T03:35:36.582Z,67.95
2023-03-26T03:38:44.787Z,67.97
2023-03-26T03:41:52.363Z,67.95
2023-03-26T03:44:58.556Z,67.99
2023-03-26T03:48:16.573Z,68.00
2023-03-26T03:51:23.285Z,68.05
2023-03-26T03:54:31.671Z,68.14
2023-03-26T03:57:41.716Z,68.18
2023-03-26T04:00:52.104Z,68.31
2023-03-26T04:04:16.803Z,68.37
2023-03-26T04:07:34.282Z,68.46
2023-03-26T04:10:55.969Z,68.60
2023-03-26T04:14:08.553Z,68.70
2023-03-26T04:17:17.571Z,68.72
2023-03-26T04:20:26.129Z,68.76
2023-03-26T04:23:33.620Z,68.77
2023-03-26T04:26:42.242Z,68.75
2023-03-26T04:29:59.177Z,68.83
2023-03-26T04:33:07.630Z,68.87
2023-03-26T04:36:14.600Z,68.96
2023-03-26T04:39:21.210Z,68.93
2023-03-26T04:42:46.492Z,68.92
2023-03-26T04:45:59.874Z,68.97
2023-03-26T04:49:07.634Z,69.05
2023-03-26T04:52:13.737Z,69.03
2023-03-26T04:55:25.216Z,69.03
2023-03-26T04:58:34.426Z,69.02
2023-03-26T05:01:39.841Z,69.09
2023-03-26T05:04:50.356Z,69.12
2023-03-26T05:07:57.333Z,69.11
2023-03-26T05:11:04.379Z,69.14
2023-03-26T05:14:10.039Z,69.29
2023-03-26T05:17:17.989Z,69.33
2023-03-26T05:20:29.135Z,69.28
2023-03-26T05:23:36.473Z,69.36
2023-03-26T05:26:48.327Z,69.38
2023-03-26T05:29:57.399Z,69.42
2023-03-26T05:33:07.322Z,69.32
2023-03-26T05:36:25.848Z,69.32
2023-03-26T05:39:50.773Z,69.43
2023-03-26T05:43:05.085Z,69.37
2023-03-26T05:46:14.288Z,69.51
2023-03-26T05:49:21.020Z,69.57
2023-03-26T05:52:27.618Z,69.68
2023-03-26T05:55:55.438Z,69.72
2023-03-26T05:59:19.944Z,69.79
2023-03-26T06:02:43.903Z,69.78
2023-03-26T06:06:00.494Z,69.72
2023-03-26T06:09:11.928Z,69.74
2023-03-26T06:12:17.791Z,69.89
2023-03-26T06:15:25.653Z,70.02
2023-03-26T06:18:34.099Z,70.06
2023-03-26T06:21:42.366Z,70.02
2023-03-26T06:24:53.496Z,70.04
2023-03-26T06:28:19.795Z,70.04
2023-03-26T06:31:31.422Z,70.06
2023-03-26T06:34:50.032Z,70.07
2023-03-26T06:37:57.416Z,70.12
2023-03-26T06:41:05.512Z,70.19
2023-03-26T06:44:17.585Z,70.17
2023-03-26T06:47:43.660Z,70.15
2023-03-26T06:50:57.601Z,70.34
2023-03-26T06:54:07.796Z,70.20
2023-03-26T06:57:28.344Z,70.30
2023-03-26T07:00:50.504Z,70.30
2023-03-26T07:04:14.376Z,70.40
2023-03-26T07:07:45.765Z,70.44
2023-03-26T07:11:03.957Z,70.45
2023-03-26T07:14:22.826Z,70.56
2023-03-26T07:17:47.663Z,70.56
2023-03-26T07:20:56.038Z,70.63
2023-03-26T07:24:04.546Z,70.57
2023-03-26T07:27:31.147Z,70.41
2023-03-26T07:31:15.521Z,70.60
2023-03-26T07:34:45.338Z,70.74
2023-03-26T07:37:58.601Z,70.77
2023-03-26T07:41:32.779Z,70.86
2023-03-26T07:45:08.166Z,70.85
2023-03-26T07:48:36.785Z,70.67
2023-03-26T07:51:47.657Z,70.70
2023-03-26T07:54:58.223Z,70.80
2023-03-26T07:58:29.264Z,70.96
2023-03-26T08:02:27.667Z,71.04
2023-03-26T08:05:49.037Z,70.99
2023-03-26T08:09:25.651Z,71.05
2023-03-26T08:12:42.717Z,70.88
2023-03-26T08:15:56.414Z,70.96
2023-03-26T08:19:39.532Z,71.10
2023-03-26T08:22:49.750Z,71.03
2023-03-26T08:26:17.575Z,71.12
2023-03-26T08:29:48.947Z,71.17
2023-03-26T08:32:57.211Z,71.10
2023-03-26T08:36:04.482Z,71.23
2023-03-26T08:39:10.938Z,71.39
2023-03-26T08:42:50.389Z,71.43
2023-03-26T08:46:03.912Z,71.44
2023-03-26T08:49:40.995Z,71.44
2023-03-26T08:53:32.031Z,71.51
2023-03-26T08:56:58.241Z,71.58
2023-03-26T09:00:35.779Z,71.61
2023-03-26T09:04:07.545Z,71.62
2023-03-26T09:07:54.401Z,71.58
2023-03-26T09:11:50.919Z,71.69
2023-03-26T09:15:37.724Z,71.81
2023-03-26T09:19:06.244Z,71.84
2023-03-26T09:22:47.313Z,71.71
2023-03-26T09:26:31.294Z,71.82
2023-03-26T09:30:25.382Z,71.80
2023-03-26T09:33:54.046Z,71.90
2023-03-26T09:37:34.550Z,72.06
2023-03-26T09:40:54.985Z,72.16
2023-03-26T09:44:53.231Z,72.18
2023-03-26T09:48:38.040Z,72.14
2023-03-26T09:51:55.065Z,72.15
2023-03-26T09:55:18.655Z,72.27
2023-03-26T09:58:45.257Z,72.34
2023-03-26T10:02:12.752Z,72.34
2023-03-26T10:05:52.733Z,72.40
2023-03-26T10:09:05.767Z,72.38
2023-03-26T10:12:25.498Z,72.36
2023-03-26T10:15:59.339Z,72.32
2023-03-26T10:19:27.415Z,72.37
2023-03-26T10:22:59.920Z,72.49
2023-03-26T10:26:41.154Z,72.53
2023-03-26T10:30:25.338Z,72.54
2023-03-26T10:33:53.272Z,72.62
2023-03-26T10:37:25.770Z,72.65
2023-03-26T10:40:57.185Z,72.69
2023-03-26T10:44:53.176Z,72.71
2023-03-26T10:48:15.690Z,72.68
2023-03-26T10:51:45.085Z,72.81
2023-03-26T10:55:18.509Z,72.83
2023-03-26T10:58:48.398Z,72.79
2023-03-26T11:02:19.690Z,72.81
2023-03-26T11:05:55.337Z,72.81
2023-03-26T11:09:37.100Z,72.88
2023-03-26T11:12:58.229Z,73.00
2023-03-26T11:16:16.813Z,73.10
2023-03-26T11:19:35.387Z,73.18
2023-03-26T11:22:54.132Z,73.24
2023-03-26T11:26:16.342Z,73.22
2023-03-26T11:29:57.729Z,73.11
2023-03-26T11:33:16.644Z,73.03
2023-03-26T11:36:35.763Z,73.02
2023-03-26T11:39:45.359Z,73.10
2023-03-26T11:42:52.000Z,73.28
2023-03-26T11:46:01.858Z,73.34
2023-03-26T11:49:18.460Z,73.27
2023-03-26T11:52:26.548Z,73.33
2023-03-26T11:55:35.443Z,73.39
2023-03-26T11:58:45.298Z,73.42
2023-03-26T12:02:13.576Z,73.41
2023-03-26T12:05:30.300Z,73.50
2023-03-26T12:08:46.323Z,73.47
2023-03-26T12:11:52.402Z,73.33
2023-03-26T12:14:58.903Z,73.38
2023-03-26T12:18:08.734Z,73.45
2023-03-26T12:21:30.585Z,73.53
2023-03-26T12:24:48.009Z,73.60
2023-03-26T12:28:01.928Z,73.61
2023-03-26T12:31:15.212Z,73.65
2023-03-26T12:34:32.096Z,73.68
2023-03-26T12:37:51.555Z,73.65
2023-03-26T12:40:58.938Z,73.65
2023-03-26T12:44:49.799Z,73.67
2023-03-26T12:48:00.156Z,73.69
2023-03-26T12:50:57.792Z,73.71
2023-03-26T12:54:47.207Z,73.78
2023-03-26T12:58:13.533Z,73.85
2023-03-26T13:01:25.070Z,73.82
2023-03-26T13:05:04.310Z,73.77
2023-03-26T13:08:29.188Z,73.82
2023-03-26T13:12:09.774Z,73.94
2023-03-26T13:15:31.745Z,74.04
2023-03-26T13:18:52.064Z,74.05
2023-03-26T13:22:07.648Z,74.09
2023-03-26T13:25:31.237Z,74.11
2023-03-26T13:29:09.500Z,74.11
2023-03-26T13:32:26.647Z,74.14
2023-03-26T13:35:50.132Z,74.16
2023-03-26T13:39:11.840Z,74.12
2023-03-26T13:42:35.164Z,74.15
2023-03-26T13:45:58.842Z,74.23
2023-03-26T13:49:12.969Z,74.29
2023-03-26T13:52:26.804Z,74.30
2023-03-26T13:55:52.461Z,74.28
2023-03-26T13:59:16.074Z,74.24
2023-03-26T14:02:30.587Z,74.27
2023-03-26T14:05:58.317Z,74.39
2023-03-26T14:09:12.602Z,74.41
2023-03-26T14:12:40.837Z,74.41
2023-03-26T14:16:19.768Z,74.41
2023-03-26T14:19:48.362Z,74.38
2023-03-26T14:23:24.727Z,74.37
2023-03-26T14:27:00.738Z,74.43
2023-03-26T14:30:43.377Z,74.53
2023-03-26T14:34:14.457Z,74.55
2023-03-26T14:37:39.455Z,74.54
2023-03-26T14:41:10.314Z,74.62
2023-03-26T14:44:47.615Z,74.68
2023-03-26T14:47:54.303Z,74.71
2023-03-26T14:51:29.576Z,74.72
2023-03-26T14:54:38.557Z,74.81
2023-03-26T14:57:58.514Z,74.59
2023-03-26T15:01:28.665Z,74.67
2023-03-26T15:05:29.671Z,74.77
2023-03-26T15:09:18.739Z,74.90
2023-03-26T15:13:04.255Z,75.00
2023-03-26T15:16:28.215Z,75.02
2023-03-26T15:19:56.602Z,75.11
2023-03-26T15:23:23.574Z,75.21
2023-03-26T15:27:03.563Z,75.21
2023-03-26T15:30:41.733Z,75.10
2023-03-26T15:34:05.645Z,75.09
2023-03-26T15:37:41.698Z,75.11
2023-03-26T15:41:06.034Z,75.15
2023-03-26T15:44:24.834Z,75.17
2023-03-26T15:47:58.566Z,75.28
2023-03-26T15:51:20.914Z,75.16
2023-03-26T15:55:08.114Z,75.07
2023-03-26T15:58:30.745Z,75.04
2023-03-26T16:02:23.329Z,75.13
2023-03-26T16:06:13.779Z,75.21
2023-03-26T16:09:30.133Z,75.33
2023-03-26T16:12:53.676Z,75.42
2023-03-26T16:16:13.138Z,75.46
2023-03-26T16:19:52.620Z,75.62
2023-03-26T16:23:15.176Z,75.67
2023-03-26T16:26:38.817Z,75.67
2023-03-26T16:29:49.505Z,75.57
2023-03-26T16:33:02.037Z,75.73
2023-03-26T16:36:11.375Z,75.85
2023-03-26T16:39:24.972Z,75.89
2023-03-26T16:42:53.667Z,76.03
2023-03-26T16:46:13.657Z,76.23
2023-03-26T16:49:40.033Z,76.44
2023-03-26T16:53:12.605Z,76.58
2023-03-26T16:56:45.582Z,76.68
2023-03-26T17:00:31.793Z,76.73
2023-03-26T17:04:00.843Z,76.66
2023-03-26T17:07:32.744Z,76.69
2023-03-26T17:10:57.845Z,76.70
2023-03-26T17:14:33.899Z,76.76
2023-03-26T17:17:54.628Z,76.80
2023-03-26T17:21:19.887Z,76.88
2023-03-26T17:24:50.281Z,76.93
2023-03-26T17:28:51.518Z,76.94
2023-03-26T17:32:06.647Z,76.99
2023-03-26T17:35:15.513Z,76.98
2023-03-26T17:38:45.255Z,77.00
2023-03-26T17:42:11.301Z,77.01
2023-03-26T17:45:28.686Z,76.97
2023-03-26T17:48:36.413Z,76.95
2023-03-26T17:52:12.180Z,76.99
2023-03-26T17:55:18.472Z,76.92
2023-03-26T17:58:54.697Z,76.90
2023-03-26T18:02:02.755Z,76.99
2023-03-26T18:05:08.251Z,77.09
2023-03-26T18:08:59.516Z,77.13
2023-03-26T18:12:51.158Z,77.18
2023-03-26T18:16:08.505Z,77.21
2023-03-26T18:19:19.093Z,77.19
2023-03-26T18:22:40.382Z,77.12
2023-03-26T18:25:47.723Z,77.11
2023-03-26T18:29:01.367Z,77.15
2023-03-26T18:32:28.542Z,77.22
2023-03-26T18:35:35.493Z,77.17
2023-03-26T18:38:42.980Z,77.27
2023-03-26T18:41:52.589Z,77.37
2023-03-26T18:45:03.381Z,77.46
2023-03-26T18:48:17.578Z,77.55
2023-03-26T18:51:26.313Z,77.58
2023-03-26T18:54:34.599Z,77.63
2023-03-26T18:57:43.304Z,77.66
2023-03-26T19:00:52.442Z,77.63
2023-03-26T19:03:59.997Z,77.67
2023-03-26T19:07:05.510Z,77.68
2023-03-26T19:10:13.092Z,77.70
2023-03-26T19:13:23.013Z,77.67
2023-03-26T19:16:39.545Z,77.74
2023-03-26T19:19:50.061Z,77.78
2023-03-26T19:22:55.756Z,77.83
2023-03-26T19:26:05.740Z,77.84
2023-03-26T19:29:14.865Z,77.82
2023-03-26T19:32:38.601Z,77.81
2023-03-26T19:35:45.176Z,77.81
2023-03-26T19:39:04.311Z,77.87
2023-03-26T19:42:13.525Z,77.93
2023-03-26T19:45:21.243Z,78.01
2023-03-26T19:48:45.826Z,78.03
2023-03-26T19:51:48.206Z,78.07
2023-03-26T19:55:19.471Z,78.19
2023-03-26T19:58:27.768Z,78.20
2023-03-26T20:01:44.377Z,78.19
2023-03-26T20:04:50.183Z,78.23
2023-03-26T20:07:57.301Z,78.29
2023-03-26T20:11:03.650Z,78.34
2023-03-26T20:14:09.866Z,78.39
2023-03-26T20:17:16.520Z,78.39
2023-03-26T20:20:28.000Z,78.32
2023-03-26T20:23:34.508Z,78.21
2023-03-26T20:26:40.881Z,78.24
2023-03-26T20:29:46.971Z,78.28
2023-03-26T20:33:12.341Z,78.33
2023-03-26T20:36:08.866Z,78.45
2023-03-26T20:39:14.530Z,78.55
2023-03-26T20:42:21.299Z,78.59
2023-03-26T20:45:37.416Z,78.64
2023-03-26T20:48:45.526Z,78.69
2023-03-26T20:51:55.856Z,78.69
2023-03-26T20:55:02.910Z,78.65
2023-03-26T20:58:10.030Z,78.61
2023-03-26T21:01:17.343Z,78.73
2023-03-26T21:04:24.367Z,78.73
2023-03-26T21:07:30.313Z,78.76
2023-03-26T21:10:37.362Z,78.85
2023-03-26T21:13:52.751Z,78.86
2023-03-26T21:17:02.117Z,78.96
2023-03-26T21:20:11.678Z,79.07
2023-03-26T21:23:30.016Z,79.15
2023-03-26T21:27:00.351Z,79.24
2023-03-26T21:30:09.155Z,79.37
2023-03-26T21:33:15.105Z,79.40
2023-03-26T21:36:22.777Z,79.43
2023-03-26T21:39:28.940Z,79.45
2023-03-26T21:42:36.810Z,79.44
2023-03-26T21:45:44.635Z,79.39
2023-03-26T21:48:52.175Z,79.43
2023-03-26T21:51:59.216Z,79.47
2023-03-26T21:55:07.790Z,79.50
2023-03-26T21:58:35.449Z,79.52
2023-03-26T22:01:52.460Z,79.52
2023-03-26T22:05:11.019Z,79.54
2023-03-26T22:08:18.694Z,79.52
2023-03-26T22:11:25.266Z,79.52
2023-03-26T22:14:33.570Z,79.58
2023-03-26T22:17:39.503Z,79.57
2023-03-26T22:20:45.222Z,79.55
2023-03-26T22:23:54.464Z,79.53
2023-03-26T22:27:02.254Z,79.58
2023-03-26T22:30:07.592Z,79.63
2023-03-26T22:33:19.649Z,79.65
2023-03-26T22:36:26.990Z,79.70
2023-03-26T22:39:34.599Z,79.74
2023-03-26T22:42:41.700Z,79.70
2023-03-26T22:45:48.075Z,79.66
2023-03-26T22:48:58.523Z,79.61
2023-03-26T22:52:06.433Z,79.61
2023-03-26T22:55:13.879Z,79.63
2023-03-26T22:58:15.905Z,79.64
2023-03-26T23:01:27.045Z,79.59
2023-03-26T23:04:37.863Z,79.60
2023-03-26T23:07:44.591Z,79.62
2023-03-26T23:10:50.805Z,79.61
2023-03-26T23:13:56.990Z,79.67
2023-03-26T23:17:04.355Z,79.75
2023-03-26T23:20:12.895Z,79.74
2023-03-26T23:23:21.168Z,79.77
2023-03-26T23:26:32.760Z,79.81
2023-03-26T23:29:38.911Z,79.76
2023-03-26T23:32:38.890Z,79.78
2023-03-26T23:35:31.469Z,79.82
2023-03-26T23:38:43.653Z,79.85
2023-03-26T23:41:46.494Z,79.83
2023-03-26T23:44:54.854Z,79.84
2023-03-26T23:48:01.566Z,79.88
2023-03-26T23:51:10.108Z,79.91
2023-03-26T23:54:18.477Z,79.98
2023-03-26T23:57:25.068Z,80.01
